Bootsie B, — WDF9484 — position and weather

sailwx.info

Track history (hours):
 
Tides and Currents Weather Stations Pressure Air Temp Water Temp Dewpoint Dewpoint Depression Visibility Wind Speed Wind Dir Waves Ship Positions

Bootsie B,

Owner: Marquette Transp[ortation Co. LLC, Paducah, KY. More information available from US FCC via Universal Licensing System and Coast Guard Vessel Documentation Center.

Last reported at 2014-Dec-09 11:31 UTC. Time now 2014-Dec-19 15:48 UTC.
Position N 30°13' W 091°06'.
Warning: this ship's position is 10 days out of date.

Length 57 m; draft 2 m.

Type: Towing. MMSI: 367505630.

Date/timePositionNaut miles runAvg speedWind from/ knotsBaromVisibWave heightAir tempDewpointWater temp
2014-Dec-09 11:31N 30°13' W 091°06'6 4.9
2014-Dec-09 10:16N 30°09' W 091°00'2 1.9
2014-Dec-09 09:16N 30°07' W 090°59'4 3.9
2014-Dec-09 08:19N 30°08' W 090°55'5 5.7
2014-Dec-09 07:32N 30°04' W 090°53'3 3.0
2014-Dec-09 06:29N 30°02' W 090°50'19 1.2
2014-Dec-08 14:09N 30°01' W 090°28'0 0.0
2014-Dec-08 13:33N 30°01' W 090°28'18 1.2
2014-Dec-07 22:33N 29°57' W 090°08'4 4.0
2014-Dec-07 21:33N 29°55' W 090°04'3 3.4
2014-Dec-07 20:33N 29°56' W 090°00'4 1.3
2014-Dec-07 17:32N 29°55' W 089°56'17 0.5
2014-Dec-06 09:29N 29°58' W 090°16'0 0.0
2014-Dec-06 08:28N 29°58' W 090°16'0 0.0
2014-Dec-06 07:33N 29°58' W 090°16'31 0.7
2014-Dec-04 13:31N 30°04' W 090°51'0 0.0
2014-Dec-04 12:19N 30°04' W 090°51'0 0.0
2014-Dec-04 11:28N 30°04' W 090°51'0 0.0
2014-Dec-04 10:20N 30°04' W 090°51'0 0.0
2014-Dec-04 09:24N 30°04' W 090°51'0 0.0
2014-Dec-04 08:29N 30°04' W 090°51'0 0.0
2014-Dec-04 07:27N 30°04' W 090°51'0 0.0
2014-Dec-04 06:31N 30°04' W 090°51'0 0.0
2014-Dec-04 05:26N 30°04' W 090°51'0 0.0
2014-Dec-04 04:28N 30°04' W 090°51'  
Track history (hours):
 
Tides and Currents Weather Stations Pressure Air Temp Water Temp Dewpoint Dewpoint Depression Visibility Wind Speed Wind Dir Waves Ship Positions

Bootsie B,

Owner: Marquette Transp[ortation Co. LLC, Paducah, KY. More information available from US FCC via Universal Licensing System and Coast Guard Vessel Documentation Center.

Last reported at 2014-Dec-09 11:31 UTC. Time now 2014-Dec-19 15:48 UTC.
Position N 30°13' W 091°06'.
Warning: this ship's position is 10 days out of date.

Length 57 m; draft 2 m.

Type: Towing. MMSI: 367505630.

Date/timePositionNaut miles runAvg speedWind from/ knotsBaromVisibWave heightAir tempDewpointWater temp
2014-Dec-09 11:31N 30°13' W 091°06'6 4.9
2014-Dec-09 10:16N 30°09' W 091°00'2 1.9
2014-Dec-09 09:16N 30°07' W 090°59'4 3.9
2014-Dec-09 08:19N 30°08' W 090°55'5 5.7
2014-Dec-09 07:32N 30°04' W 090°53'3 3.0
2014-Dec-09 06:29N 30°02' W 090°50'19 1.2
2014-Dec-08 14:09N 30°01' W 090°28'0 0.0
2014-Dec-08 13:33N 30°01' W 090°28'18 1.2
2014-Dec-07 22:33N 29°57' W 090°08'4 4.0
2014-Dec-07 21:33N 29°55' W 090°04'3 3.4
2014-Dec-07 20:33N 29°56' W 090°00'4 1.3
2014-Dec-07 17:32N 29°55' W 089°56'17 0.5
2014-Dec-06 09:29N 29°58' W 090°16'0 0.0
2014-Dec-06 08:28N 29°58' W 090°16'0 0.0
2014-Dec-06 07:33N 29°58' W 090°16'31 0.7
2014-Dec-04 13:31N 30°04' W 090°51'0 0.0
2014-Dec-04 12:19N 30°04' W 090°51'0 0.0
2014-Dec-04 11:28N 30°04' W 090°51'0 0.0
2014-Dec-04 10:20N 30°04' W 090°51'0 0.0
2014-Dec-04 09:24N 30°04' W 090°51'0 0.0
2014-Dec-04 08:29N 30°04' W 090°51'0 0.0
2014-Dec-04 07:27N 30°04' W 090°51'0 0.0
2014-Dec-04 06:31N 30°04' W 090°51'0 0.0
2014-Dec-04 05:26N 30°04' W 090°51'0 0.0
2014-Dec-04 04:28N 30°04' W 090°51'  

Dump ship's entire track history